sensor_id;sensor_type;location;lat;lon;timestamp;P1;durP1;ratioP1;P2;durP2;ratioP2
76417;SDS011;65250;47.602;19.002;2023-07-09T00:00:46;4.55;;;2.80;;
76417;SDS011;65250;47.602;19.002;2023-07-09T00:03:13;3.33;;;2.90;;
76417;SDS011;65250;47.602;19.002;2023-07-09T00:05:41;5.00;;;3.13;;
76417;SDS011;65250;47.602;19.002;2023-07-09T00:08:27;5.40;;;3.17;;
76417;SDS011;65250;47.602;19.002;2023-07-09T00:10:56;7.93;;;3.20;;
76417;SDS011;65250;47.602;19.002;2023-07-09T00:13:23;6.75;;;3.47;;
76417;SDS011;65250;47.602;19.002;2023-07-09T00:15:51;4.00;;;3.03;;
76417;SDS011;65250;47.602;19.002;2023-07-09T00:18:27;3.17;;;2.83;;
76417;SDS011;65250;47.602;19.002;2023-07-09T00:20:54;5.18;;;3.30;;
76417;SDS011;65250;47.602;19.002;2023-07-09T00:23:21;4.47;;;3.13;;
76417;SDS011;65250;47.602;19.002;2023-07-09T00:25:48;3.28;;;2.47;;
76417;SDS011;65250;47.602;19.002;2023-07-09T00:28:16;5.10;;;3.20;;
76417;SDS011;65250;47.602;19.002;2023-07-09T00:30:44;3.35;;;3.05;;
76417;SDS011;65250;47.602;19.002;2023-07-09T00:33:12;5.25;;;3.15;;
76417;SDS011;65250;47.602;19.002;2023-07-09T00:35:42;3.67;;;3.15;;
76417;SDS011;65250;47.602;19.002;2023-07-09T00:38:13;8.13;;;3.28;;
76417;SDS011;65250;47.602;19.002;2023-07-09T00:41:00;4.00;;;3.30;;
76417;SDS011;65250;47.602;19.002;2023-07-09T00:43:35;4.05;;;3.00;;
76417;SDS011;65250;47.602;19.002;2023-07-09T00:51:56;6.10;;;3.10;;
76417;SDS011;65250;47.602;19.002;2023-07-09T00:54:26;5.97;;;3.50;;
76417;SDS011;65250;47.602;19.002;2023-07-09T00:57:01;3.40;;;2.92;;
76417;SDS011;65250;47.602;19.002;2023-07-09T00:59:34;4.53;;;2.85;;
76417;SDS011;65250;47.602;19.002;2023-07-09T01:02:02;4.07;;;2.80;;
76417;SDS011;65250;47.602;19.002;2023-07-09T01:04:29;3.45;;;2.90;;
76417;SDS011;65250;47.602;19.002;2023-07-09T01:06:56;3.50;;;2.70;;
76417;SDS011;65250;47.602;19.002;2023-07-09T01:09:23;4.13;;;3.00;;
76417;SDS011;65250;47.602;19.002;2023-07-09T01:11:51;3.65;;;2.65;;
76417;SDS011;65250;47.602;19.002;2023-07-09T01:14:19;3.67;;;2.97;;
76417;SDS011;65250;47.602;19.002;2023-07-09T01:16:49;4.05;;;2.97;;
76417;SDS011;65250;47.602;19.002;2023-07-09T01:19:24;3.50;;;2.80;;
76417;SDS011;65250;47.602;19.002;2023-07-09T01:21:53;3.60;;;2.83;;
76417;SDS011;65250;47.602;19.002;2023-07-09T01:27:13;3.17;;;2.80;;
76417;SDS011;65250;47.602;19.002;2023-07-09T01:29:40;3.17;;;2.70;;
76417;SDS011;65250;47.602;19.002;2023-07-09T01:32:13;4.07;;;2.90;;
76417;SDS011;65250;47.602;19.002;2023-07-09T01:34:40;3.42;;;2.70;;
76417;SDS011;65250;47.602;19.002;2023-07-09T01:37:07;4.20;;;2.60;;
76417;SDS011;65250;47.602;19.002;2023-07-09T01:39:34;4.25;;;3.10;;
76417;SDS011;65250;47.602;19.002;2023-07-09T01:42:02;3.53;;;3.10;;
76417;SDS011;65250;47.602;19.002;2023-07-09T01:44:32;3.93;;;3.10;;
76417;SDS011;65250;47.602;19.002;2023-07-09T01:46:59;3.83;;;3.08;;
76417;SDS011;65250;47.602;19.002;2023-07-09T01:49:27;3.90;;;2.80;;
76417;SDS011;65250;47.602;19.002;2023-07-09T01:51:56;6.60;;;2.55;;
76417;SDS011;65250;47.602;19.002;2023-07-09T01:54:23;3.10;;;2.75;;
76417;SDS011;65250;47.602;19.002;2023-07-09T01:56:50;3.90;;;3.23;;
76417;SDS011;65250;47.602;19.002;2023-07-09T01:59:17;3.95;;;3.40;;
76417;SDS011;65250;47.602;19.002;2023-07-09T02:01:47;5.22;;;3.47;;
76417;SDS011;65250;47.602;19.002;2023-07-09T02:04:14;5.85;;;3.65;;
76417;SDS011;65250;47.602;19.002;2023-07-09T02:06:41;5.55;;;3.58;;
76417;SDS011;65250;47.602;19.002;2023-07-09T02:09:08;4.77;;;3.83;;
76417;SDS011;65250;47.602;19.002;2023-07-09T02:11:34;5.15;;;3.40;;
76417;SDS011;65250;47.602;19.002;2023-07-09T02:14:01;5.22;;;3.67;;
76417;SDS011;65250;47.602;19.002;2023-07-09T02:16:28;4.57;;;4.05;;
76417;SDS011;65250;47.602;19.002;2023-07-09T02:18:55;4.88;;;4.20;;
76417;SDS011;65250;47.602;19.002;2023-07-09T02:21:22;7.30;;;3.90;;
76417;SDS011;65250;47.602;19.002;2023-07-09T02:23:49;4.95;;;3.60;;
76417;SDS011;65250;47.602;19.002;2023-07-09T02:26:16;7.65;;;3.67;;
76417;SDS011;65250;47.602;19.002;2023-07-09T02:28:43;5.38;;;3.05;;
76417;SDS011;65250;47.602;19.002;2023-07-09T02:31:10;4.72;;;3.28;;
76417;SDS011;65250;47.602;19.002;2023-07-09T02:33:37;3.80;;;2.87;;
76417;SDS011;65250;47.602;19.002;2023-07-09T02:36:03;5.22;;;3.00;;
76417;SDS011;65250;47.602;19.002;2023-07-09T02:38:31;4.07;;;3.00;;
76417;SDS011;65250;47.602;19.002;2023-07-09T02:40:58;5.00;;;3.15;;
76417;SDS011;65250;47.602;19.002;2023-07-09T02:43:24;3.75;;;2.85;;
76417;SDS011;65250;47.602;19.002;2023-07-09T02:45:51;3.40;;;3.03;;
76417;SDS011;65250;47.602;19.002;2023-07-09T02:48:18;3.88;;;2.90;;
76417;SDS011;65250;47.602;19.002;2023-07-09T02:50:45;4.40;;;3.42;;
76417;SDS011;65250;47.602;19.002;2023-07-09T02:53:12;5.40;;;2.90;;
76417;SDS011;65250;47.602;19.002;2023-07-09T02:55:38;3.90;;;2.88;;
76417;SDS011;65250;47.602;19.002;2023-07-09T02:58:05;3.03;;;2.60;;
76417;SDS011;65250;47.602;19.002;2023-07-09T03:00:32;3.53;;;2.70;;
76417;SDS011;65250;47.602;19.002;2023-07-09T03:02:59;4.82;;;2.72;;
76417;SDS011;65250;47.602;19.002;2023-07-09T03:05:26;4.50;;;3.03;;
76417;SDS011;65250;47.602;19.002;2023-07-09T03:07:53;3.95;;;3.03;;
76417;SDS011;65250;47.602;19.002;2023-07-09T03:10:19;3.47;;;2.70;;
76417;SDS011;65250;47.602;19.002;2023-07-09T03:12:46;3.45;;;2.83;;
76417;SDS011;65250;47.602;19.002;2023-07-09T03:15:13;4.13;;;3.25;;
76417;SDS011;65250;47.602;19.002;2023-07-09T03:17:40;3.78;;;3.38;;
76417;SDS011;65250;47.602;19.002;2023-07-09T03:20:07;4.15;;;3.53;;
76417;SDS011;65250;47.602;19.002;2023-07-09T03:22:34;4.13;;;3.37;;
76417;SDS011;65250;47.602;19.002;2023-07-09T03:25:01;5.78;;;3.38;;
76417;SDS011;65250;47.602;19.002;2023-07-09T03:27:28;5.07;;;3.72;;
76417;SDS011;65250;47.602;19.002;2023-07-09T03:29:54;7.68;;;3.05;;
76417;SDS011;65250;47.602;19.002;2023-07-09T03:32:21;3.97;;;3.05;;
76417;SDS011;65250;47.602;19.002;2023-07-09T03:34:48;4.00;;;3.30;;
76417;SDS011;65250;47.602;19.002;2023-07-09T03:37:15;5.40;;;3.10;;
76417;SDS011;65250;47.602;19.002;2023-07-09T03:39:42;6.53;;;3.22;;
76417;SDS011;65250;47.602;19.002;2023-07-09T03:42:08;4.47;;;3.33;;
76417;SDS011;65250;47.602;19.002;2023-07-09T03:44:38;6.22;;;3.25;;
76417;SDS011;65250;47.602;19.002;2023-07-09T03:47:05;4.03;;;3.10;;
76417;SDS011;65250;47.602;19.002;2023-07-09T03:49:32;6.13;;;3.05;;
76417;SDS011;65250;47.602;19.002;2023-07-09T03:51:59;4.57;;;2.95;;
76417;SDS011;65250;47.602;19.002;2023-07-09T03:54:25;3.10;;;2.80;;
76417;SDS011;65250;47.602;19.002;2023-07-09T03:56:53;5.40;;;3.20;;
76417;SDS011;65250;47.602;19.002;2023-07-09T03:59:20;4.43;;;3.10;;
76417;SDS011;65250;47.602;19.002;2023-07-09T04:01:47;6.53;;;3.90;;
76417;SDS011;65250;47.602;19.002;2023-07-09T04:04:14;4.22;;;3.35;;
76417;SDS011;65250;47.602;19.002;2023-07-09T04:06:41;6.05;;;3.60;;
76417;SDS011;65250;47.602;19.002;2023-07-09T04:09:08;3.88;;;3.47;;
76417;SDS011;65250;47.602;19.002;2023-07-09T04:11:34;5.50;;;3.80;;
76417;SDS011;65250;47.602;19.002;2023-07-09T04:14:01;6.70;;;4.05;;
76417;SDS011;65250;47.602;19.002;2023-07-09T04:16:28;6.47;;;3.80;;
76417;SDS011;65250;47.602;19.002;2023-07-09T04:18:55;4.97;;;3.70;;
76417;SDS011;65250;47.602;19.002;2023-07-09T04:21:22;4.88;;;4.15;;
76417;SDS011;65250;47.602;19.002;2023-07-09T04:23:49;7.67;;;3.87;;
76417;SDS011;65250;47.602;19.002;2023-07-09T04:26:16;6.32;;;4.20;;
76417;SDS011;65250;47.602;19.002;2023-07-09T04:28:42;6.32;;;4.28;;
76417;SDS011;65250;47.602;19.002;2023-07-09T04:31:09;4.68;;;3.80;;
76417;SDS011;65250;47.602;19.002;2023-07-09T04:33:36;6.57;;;4.38;;
76417;SDS011;65250;47.602;19.002;2023-07-09T04:36:03;7.27;;;3.87;;
76417;SDS011;65250;47.602;19.002;2023-07-09T04:38:33;6.35;;;4.10;;
76417;SDS011;65250;47.602;19.002;2023-07-09T04:41:00;5.30;;;4.00;;
76417;SDS011;65250;47.602;19.002;2023-07-09T04:43:26;5.35;;;4.45;;
76417;SDS011;65250;47.602;19.002;2023-07-09T04:45:53;5.15;;;4.10;;
76417;SDS011;65250;47.602;19.002;2023-07-09T04:48:20;5.00;;;4.50;;
76417;SDS011;65250;47.602;19.002;2023-07-09T04:50:47;5.78;;;4.07;;
76417;SDS011;65250;47.602;19.002;2023-07-09T04:53:16;7.10;;;4.60;;
76417;SDS011;65250;47.602;19.002;2023-07-09T04:55:43;4.32;;;3.92;;
76417;SDS011;65250;47.602;19.002;2023-07-09T04:58:10;6.25;;;4.43;;
76417;SDS011;65250;47.602;19.002;2023-07-09T05:00:37;5.27;;;4.47;;
76417;SDS011;65250;47.602;19.002;2023-07-09T05:03:04;6.80;;;4.80;;
76417;SDS011;65250;47.602;19.002;2023-07-09T05:05:31;5.68;;;4.32;;
76417;SDS011;65250;47.602;19.002;2023-07-09T05:07:57;4.80;;;4.38;;
76417;SDS011;65250;47.602;19.002;2023-07-09T05:10:24;7.15;;;4.30;;
76417;SDS011;65250;47.602;19.002;2023-07-09T05:12:52;6.70;;;4.33;;
76417;SDS011;65250;47.602;19.002;2023-07-09T05:15:20;5.55;;;4.45;;
76417;SDS011;65250;47.602;19.002;2023-07-09T05:17:48;6.40;;;4.28;;
76417;SDS011;65250;47.602;19.002;2023-07-09T05:20:15;7.93;;;4.25;;
76417;SDS011;65250;47.602;19.002;2023-07-09T05:22:42;5.75;;;4.00;;
76417;SDS011;65250;47.602;19.002;2023-07-09T05:25:09;5.83;;;3.90;;
76417;SDS011;65250;47.602;19.002;2023-07-09T05:27:37;6.75;;;3.55;;
76417;SDS011;65250;47.602;19.002;2023-07-09T05:30:04;6.68;;;4.40;;
76417;SDS011;65250;47.602;19.002;2023-07-09T05:32:31;4.80;;;3.67;;
76417;SDS011;65250;47.602;19.002;2023-07-09T05:34:58;5.05;;;3.92;;
76417;SDS011;65250;47.602;19.002;2023-07-09T05:37:25;4.97;;;4.17;;
76417;SDS011;65250;47.602;19.002;2023-07-09T05:39:52;7.97;;;3.65;;
76417;SDS011;65250;47.602;19.002;2023-07-09T05:42:18;4.22;;;3.50;;
76417;SDS011;65250;47.602;19.002;2023-07-09T05:44:45;6.32;;;3.47;;
76417;SDS011;65250;47.602;19.002;2023-07-09T05:47:12;3.92;;;3.42;;
76417;SDS011;65250;47.602;19.002;2023-07-09T05:49:39;5.03;;;3.63;;
76417;SDS011;65250;47.602;19.002;2023-07-09T05:52:06;4.07;;;3.28;;
76417;SDS011;65250;47.602;19.002;2023-07-09T05:54:34;5.90;;;3.40;;
76417;SDS011;65250;47.602;19.002;2023-07-09T05:57:00;4.50;;;2.90;;
76417;SDS011;65250;47.602;19.002;2023-07-09T05:59:27;3.65;;;2.70;;
76417;SDS011;65250;47.602;19.002;2023-07-09T06:01:54;5.13;;;3.43;;
76417;SDS011;65250;47.602;19.002;2023-07-09T06:04:21;4.78;;;2.83;;
76417;SDS011;65250;47.602;19.002;2023-07-09T06:06:47;4.40;;;2.97;;
76417;SDS011;65250;47.602;19.002;2023-07-09T06:09:14;3.50;;;2.88;;
76417;SDS011;65250;47.602;19.002;2023-07-09T06:11:42;2.95;;;2.65;;
76417;SDS011;65250;47.602;19.002;2023-07-09T06:14:10;3.00;;;2.70;;
76417;SDS011;65250;47.602;19.002;2023-07-09T06:16:37;3.50;;;2.60;;
76417;SDS011;65250;47.602;19.002;2023-07-09T06:19:04;4.80;;;3.20;;
76417;SDS011;65250;47.602;19.002;2023-07-09T06:21:30;5.00;;;3.35;;
76417;SDS011;65250;47.602;19.002;2023-07-09T06:23:57;3.95;;;2.80;;
76417;SDS011;65250;47.602;19.002;2023-07-09T06:26:24;3.60;;;2.73;;
76417;SDS011;65250;47.602;19.002;2023-07-09T06:28:51;5.75;;;2.60;;
76417;SDS011;65250;47.602;19.002;2023-07-09T06:31:17;4.03;;;2.92;;
76417;SDS011;65250;47.602;19.002;2023-07-09T06:33:47;5.22;;;3.20;;
76417;SDS011;65250;47.602;19.002;2023-07-09T06:36:14;8.32;;;3.03;;
76417;SDS011;65250;47.602;19.002;2023-07-09T06:38:41;4.17;;;3.00;;
76417;SDS011;65250;47.602;19.002;2023-07-09T06:41:08;4.38;;;3.10;;
76417;SDS011;65250;47.602;19.002;2023-07-09T06:43:34;3.10;;;2.80;;
76417;SDS011;65250;47.602;19.002;2023-07-09T06:46:06;7.75;;;3.60;;
76417;SDS011;65250;47.602;19.002;2023-07-09T06:48:37;4.00;;;2.55;;
76417;SDS011;65250;47.602;19.002;2023-07-09T06:51:04;4.97;;;3.27;;
76417;SDS011;65250;47.602;19.002;2023-07-09T06:53:30;3.90;;;2.70;;
76417;SDS011;65250;47.602;19.002;2023-07-09T06:55:57;5.18;;;3.38;;
76417;SDS011;65250;47.602;19.002;2023-07-09T06:58:29;4.95;;;3.08;;
76417;SDS011;65250;47.602;19.002;2023-07-09T07:00:59;3.92;;;3.30;;
76417;SDS011;65250;47.602;19.002;2023-07-09T07:03:28;4.20;;;3.30;;
76417;SDS011;65250;47.602;19.002;2023-07-09T07:05:55;3.95;;;3.05;;
76417;SDS011;65250;47.602;19.002;2023-07-09T07:08:24;6.00;;;3.13;;
76417;SDS011;65250;47.602;19.002;2023-07-09T07:10:58;4.38;;;3.17;;
76417;SDS011;65250;47.602;19.002;2023-07-09T07:13:30;3.80;;;3.15;;
76417;SDS011;65250;47.602;19.002;2023-07-09T07:16:02;3.33;;;3.03;;
76417;SDS011;65250;47.602;19.002;2023-07-09T07:18:30;3.50;;;3.00;;
76417;SDS011;65250;47.602;19.002;2023-07-09T07:20:57;4.35;;;2.88;;
76417;SDS011;65250;47.602;19.002;2023-07-09T07:23:24;3.55;;;3.10;;
76417;SDS011;65250;47.602;19.002;2023-07-09T07:25:51;3.58;;;3.28;;
76417;SDS011;65250;47.602;19.002;2023-07-09T07:28:18;6.20;;;3.67;;
76417;SDS011;65250;47.602;19.002;2023-07-09T07:30:46;4.00;;;3.33;;
76417;SDS011;65250;47.602;19.002;2023-07-09T07:33:13;5.80;;;3.50;;
76417;SDS011;65250;47.602;19.002;2023-07-09T07:35:42;3.50;;;3.20;;
76417;SDS011;65250;47.602;19.002;2023-07-09T07:38:29;3.30;;;3.00;;
76417;SDS011;65250;47.602;19.002;2023-07-09T07:40:56;4.20;;;3.27;;
76417;SDS011;65250;47.602;19.002;2023-07-09T07:43:22;5.03;;;2.90;;
76417;SDS011;65250;47.602;19.002;2023-07-09T07:45:49;5.45;;;3.70;;
76417;SDS011;65250;47.602;19.002;2023-07-09T07:48:16;3.90;;;3.50;;
76417;SDS011;65250;47.602;19.002;2023-07-09T07:50:43;3.85;;;3.45;;
76417;SDS011;65250;47.602;19.002;2023-07-09T07:53:12;6.87;;;3.40;;
76417;SDS011;65250;47.602;19.002;2023-07-09T07:55:40;4.22;;;3.30;;
76417;SDS011;65250;47.602;19.002;2023-07-09T07:58:11;4.60;;;4.20;;
76417;SDS011;65250;47.602;19.002;2023-07-09T08:00:39;5.88;;;3.17;;
76417;SDS011;65250;47.602;19.002;2023-07-09T08:03:06;3.85;;;3.42;;
76417;SDS011;65250;47.602;19.002;2023-07-09T08:05:33;5.00;;;3.57;;
76417;SDS011;65250;47.602;19.002;2023-07-09T08:08:00;4.15;;;3.60;;
76417;SDS011;65250;47.602;19.002;2023-07-09T08:10:27;4.50;;;4.10;;
76417;SDS011;65250;47.602;19.002;2023-07-09T08:12:54;7.65;;;3.60;;
76417;SDS011;65250;47.602;19.002;2023-07-09T08:15:27;3.92;;;3.13;;
76417;SDS011;65250;47.602;19.002;2023-07-09T08:17:54;6.37;;;3.43;;
76417;SDS011;65250;47.602;19.002;2023-07-09T08:20:21;4.05;;;3.45;;
76417;SDS011;65250;47.602;19.002;2023-07-09T08:22:48;4.10;;;3.70;;
76417;SDS011;65250;47.602;19.002;2023-07-09T08:25:15;4.18;;;3.65;;
76417;SDS011;65250;47.602;19.002;2023-07-09T08:27:42;4.20;;;3.30;;
76417;SDS011;65250;47.602;19.002;2023-07-09T08:30:09;4.07;;;3.60;;
76417;SDS011;65250;47.602;19.002;2023-07-09T08:32:36;6.13;;;3.60;;
76417;SDS011;65250;47.602;19.002;2023-07-09T08:35:03;3.60;;;3.30;;
76417;SDS011;65250;47.602;19.002;2023-07-09T08:37:50;4.05;;;3.25;;
76417;SDS011;65250;47.602;19.002;2023-07-09T08:40:16;4.10;;;3.38;;
76417;SDS011;65250;47.602;19.002;2023-07-09T08:42:45;3.93;;;3.63;;
76417;SDS011;65250;47.602;19.002;2023-07-09T08:48:12;3.60;;;3.30;;
76417;SDS011;65250;47.602;19.002;2023-07-09T08:50:46;4.30;;;3.63;;
76417;SDS011;65250;47.602;19.002;2023-07-09T08:53:19;6.13;;;3.65;;
76417;SDS011;65250;47.602;19.002;2023-07-09T08:55:48;5.50;;;3.57;;
76417;SDS011;65250;47.602;19.002;2023-07-09T08:58:26;6.43;;;3.45;;
76417;SDS011;65250;47.602;19.002;2023-07-09T09:00:56;3.38;;;3.17;;
76417;SDS011;65250;47.602;19.002;2023-07-09T09:06:15;6.00;;;3.90;;
76417;SDS011;65250;47.602;19.002;2023-07-09T09:13:49;3.80;;;3.50;;
76417;SDS011;65250;47.602;19.002;2023-07-09T09:16:24;5.32;;;3.80;;
76417;SDS011;65250;47.602;19.002;2023-07-09T09:18:55;4.13;;;3.45;;
76417;SDS011;65250;47.602;19.002;2023-07-09T09:21:29;3.80;;;3.43;;
76417;SDS011;65250;47.602;19.002;2023-07-09T09:24:03;4.63;;;3.55;;
76417;SDS011;65250;47.602;19.002;2023-07-09T09:26:44;5.35;;;4.25;;
76417;SDS011;65250;47.602;19.002;2023-07-09T09:29:13;3.85;;;3.55;;
76417;SDS011;65250;47.602;19.002;2023-07-09T09:31:43;3.72;;;3.53;;
76417;SDS011;65250;47.602;19.002;2023-07-09T09:34:19;4.03;;;3.63;;
76417;SDS011;65250;47.602;19.002;2023-07-09T09:36:47;4.20;;;3.80;;
76417;SDS011;65250;47.602;19.002;2023-07-09T09:39:16;6.97;;;3.83;;
76417;SDS011;65250;47.602;19.002;2023-07-09T09:41:43;4.03;;;3.72;;
76417;SDS011;65250;47.602;19.002;2023-07-09T09:44:18;4.18;;;3.88;;
76417;SDS011;65250;47.602;19.002;2023-07-09T09:46:47;4.90;;;3.80;;
76417;SDS011;65250;47.602;19.002;2023-07-09T09:49:15;4.97;;;3.92;;
76417;SDS011;65250;47.602;19.002;2023-07-09T09:51:44;4.38;;;3.90;;
76417;SDS011;65250;47.602;19.002;2023-07-09T09:54:24;3.90;;;3.60;;
76417;SDS011;65250;47.602;19.002;2023-07-09T09:56:54;4.10;;;3.80;;
76417;SDS011;65250;47.602;19.002;2023-07-09T09:59:30;4.10;;;3.70;;
76417;SDS011;65250;47.602;19.002;2023-07-09T10:02:02;3.97;;;3.67;;
76417;SDS011;65250;47.602;19.002;2023-07-09T10:04:49;4.30;;;4.00;;
76417;SDS011;65250;47.602;19.002;2023-07-09T10:07:27;4.25;;;3.95;;
76417;SDS011;65250;47.602;19.002;2023-07-09T10:10:03;4.57;;;4.28;;
76417;SDS011;65250;47.602;19.002;2023-07-09T10:18:07;4.90;;;4.50;;
76417;SDS011;65250;47.602;19.002;2023-07-09T10:20:52;4.40;;;4.07;;
76417;SDS011;65250;47.602;19.002;2023-07-09T10:23:27;4.45;;;4.10;;
76417;SDS011;65250;47.602;19.002;2023-07-09T10:26:01;5.10;;;4.70;;
76417;SDS011;65250;47.602;19.002;2023-07-09T10:31:37;5.28;;;4.80;;
76417;SDS011;65250;47.602;19.002;2023-07-09T10:40:04;5.00;;;4.50;;
76417;SDS011;65250;47.602;19.002;2023-07-09T10:42:44;5.10;;;4.70;;
76417;SDS011;65250;47.602;19.002;2023-07-09T10:45:14;4.82;;;4.50;;
76417;SDS011;65250;47.602;19.002;2023-07-09T10:47:44;5.35;;;4.95;;
76417;SDS011;65250;47.602;19.002;2023-07-09T10:50:13;4.95;;;4.63;;
76417;SDS011;65250;47.602;19.002;2023-07-09T10:52:44;4.40;;;4.10;;
76417;SDS011;65250;47.602;19.002;2023-07-09T10:57:59;5.45;;;5.07;;
76417;SDS011;65250;47.602;19.002;2023-07-09T11:00:33;4.57;;;4.18;;
76417;SDS011;65250;47.602;19.002;2023-07-09T11:03:48;5.30;;;4.90;;
76417;SDS011;65250;47.602;19.002;2023-07-09T11:05:55;4.97;;;4.57;;
76417;SDS011;65250;47.602;19.002;2023-07-09T11:08:23;6.10;;;5.60;;
76417;SDS011;65250;47.602;19.002;2023-07-09T11:10:59;5.30;;;4.90;;
76417;SDS011;65250;47.602;19.002;2023-07-09T11:13:49;5.63;;;5.18;;
76417;SDS011;65250;47.602;19.002;2023-07-09T11:16:27;5.22;;;4.93;;
76417;SDS011;65250;47.602;19.002;2023-07-09T11:18:58;5.80;;;5.40;;
76417;SDS011;65250;47.602;19.002;2023-07-09T11:21:26;6.30;;;5.90;;
76417;SDS011;65250;47.602;19.002;2023-07-09T11:23:55;6.57;;;5.97;;
76417;SDS011;65250;47.602;19.002;2023-07-09T11:26:30;6.72;;;6.18;;
76417;SDS011;65250;47.602;19.002;2023-07-09T11:34:08;6.82;;;6.32;;
76417;SDS011;65250;47.602;19.002;2023-07-09T11:37:20;7.25;;;6.80;;
76417;SDS011;65250;47.602;19.002;2023-07-09T11:39:28;7.57;;;7.07;;
76417;SDS011;65250;47.602;19.002;2023-07-09T11:44:54;6.30;;;5.80;;
76417;SDS011;65250;47.602;19.002;2023-07-09T11:47:27;7.88;;;7.25;;
76417;SDS011;65250;47.602;19.002;2023-07-09T11:49:58;7.78;;;7.30;;
76417;SDS011;65250;47.602;19.002;2023-07-09T11:57:52;8.20;;;7.50;;
76417;SDS011;65250;47.602;19.002;2023-07-09T12:00:20;8.40;;;7.80;;
76417;SDS011;65250;47.602;19.002;2023-07-09T12:02:47;7.75;;;7.15;;
76417;SDS011;65250;47.602;19.002;2023-07-09T12:05:17;8.60;;;7.95;;
76417;SDS011;65250;47.602;19.002;2023-07-09T12:07:46;9.57;;;8.90;;
76417;SDS011;65250;47.602;19.002;2023-07-09T12:10:18;7.47;;;6.90;;
76417;SDS011;65250;47.602;19.002;2023-07-09T12:12:47;6.78;;;6.25;;
76417;SDS011;65250;47.602;19.002;2023-07-09T12:15:18;7.68;;;7.18;;
76417;SDS011;65250;47.602;19.002;2023-07-09T12:17:54;6.47;;;5.88;;
76417;SDS011;65250;47.602;19.002;2023-07-09T12:20:25;9.98;;;7.78;;
76417;SDS011;65250;47.602;19.002;2023-07-09T12:22:55;7.57;;;7.07;;
76417;SDS011;65250;47.602;19.002;2023-07-09T12:25:26;7.10;;;6.63;;
76417;SDS011;65250;47.602;19.002;2023-07-09T12:27:54;8.00;;;7.50;;
76417;SDS011;65250;47.602;19.002;2023-07-09T12:30:21;8.88;;;7.65;;
76417;SDS011;65250;47.602;19.002;2023-07-09T12:32:49;9.20;;;8.38;;
76417;SDS011;65250;47.602;19.002;2023-07-09T12:35:19;8.93;;;8.43;;
76417;SDS011;65250;47.602;19.002;2023-07-09T12:37:46;9.85;;;9.25;;
76417;SDS011;65250;47.602;19.002;2023-07-09T12:40:16;10.23;;;9.65;;
76417;SDS011;65250;47.602;19.002;2023-07-09T12:42:45;11.07;;;10.38;;
76417;SDS011;65250;47.602;19.002;2023-07-09T12:45:19;8.50;;;7.90;;
76417;SDS011;65250;47.602;19.002;2023-07-09T12:47:47;10.40;;;9.80;;
76417;SDS011;65250;47.602;19.002;2023-07-09T12:50:19;10.75;;;10.05;;
76417;SDS011;65250;47.602;19.002;2023-07-09T12:53:13;11.52;;;10.75;;
76417;SDS011;65250;47.602;19.002;2023-07-09T12:55:42;12.75;;;11.82;;
76417;SDS011;65250;47.602;19.002;2023-07-09T12:58:17;12.75;;;11.85;;
76417;SDS011;65250;47.602;19.002;2023-07-09T13:00:52;10.73;;;10.07;;
76417;SDS011;65250;47.602;19.002;2023-07-09T13:03:20;12.18;;;11.48;;
76417;SDS011;65250;47.602;19.002;2023-07-09T13:05:56;9.48;;;8.75;;
76417;SDS011;65250;47.602;19.002;2023-07-09T13:08:31;12.18;;;11.38;;
76417;SDS011;65250;47.602;19.002;2023-07-09T13:11:00;12.57;;;11.82;;
76417;SDS011;65250;47.602;19.002;2023-07-09T13:13:27;12.37;;;11.77;;
76417;SDS011;65250;47.602;19.002;2023-07-09T13:15:55;13.68;;;12.75;;
76417;SDS011;65250;47.602;19.002;2023-07-09T13:18:28;15.18;;;14.38;;
76417;SDS011;65250;47.602;19.002;2023-07-09T13:20:55;14.35;;;13.55;;
76417;SDS011;65250;47.602;19.002;2023-07-09T13:23:28;17.17;;;16.23;;
76417;SDS011;65250;47.602;19.002;2023-07-09T13:25:58;17.00;;;16.10;;
76417;SDS011;65250;47.602;19.002;2023-07-09T13:28:27;16.95;;;16.05;;
76417;SDS011;65250;47.602;19.002;2023-07-09T13:30:58;17.40;;;16.52;;
76417;SDS011;65250;47.602;19.002;2023-07-09T13:33:27;13.70;;;12.82;;
76417;SDS011;65250;47.602;19.002;2023-07-09T13:35:54;11.65;;;10.88;;
76417;SDS011;65250;47.602;19.002;2023-07-09T13:38:21;10.47;;;9.73;;
76417;SDS011;65250;47.602;19.002;2023-07-09T13:40:51;11.00;;;10.30;;
76417;SDS011;65250;47.602;19.002;2023-07-09T13:46:02;11.93;;;11.23;;
76417;SDS011;65250;47.602;19.002;2023-07-09T13:48:31;12.07;;;11.38;;
76417;SDS011;65250;47.602;19.002;2023-07-09T13:51:00;13.43;;;12.57;;
76417;SDS011;65250;47.602;19.002;2023-07-09T13:53:29;14.18;;;13.43;;
76417;SDS011;65250;47.602;19.002;2023-07-09T13:55:57;15.35;;;14.40;;
76417;SDS011;65250;47.602;19.002;2023-07-09T13:58:25;15.80;;;15.00;;
76417;SDS011;65250;47.602;19.002;2023-07-09T14:00:57;17.00;;;16.20;;
76417;SDS011;65250;47.602;19.002;2023-07-09T14:03:33;16.67;;;15.87;;
76417;SDS011;65250;47.602;19.002;2023-07-09T14:06:00;19.40;;;18.33;;
76417;SDS011;65250;47.602;19.002;2023-07-09T14:08:27;19.50;;;18.48;;
76417;SDS011;65250;47.602;19.002;2023-07-09T14:10:54;18.77;;;17.88;;
76417;SDS011;65250;47.602;19.002;2023-07-09T14:13:23;18.83;;;17.92;;
76417;SDS011;65250;47.602;19.002;2023-07-09T14:15:50;19.10;;;18.20;;
76417;SDS011;65250;47.602;19.002;2023-07-09T14:18:18;19.17;;;18.23;;
76417;SDS011;65250;47.602;19.002;2023-07-09T14:20:49;20.35;;;19.35;;
76417;SDS011;65250;47.602;19.002;2023-07-09T14:23:17;19.77;;;18.67;;
76417;SDS011;65250;47.602;19.002;2023-07-09T14:25:45;15.45;;;14.55;;
76417;SDS011;65250;47.602;19.002;2023-07-09T14:28:16;15.00;;;14.00;;
76417;SDS011;65250;47.602;19.002;2023-07-09T14:30:44;11.82;;;11.10;;
76417;SDS011;65250;47.602;19.002;2023-07-09T14:33:14;11.02;;;10.32;;
76417;SDS011;65250;47.602;19.002;2023-07-09T14:35:42;11.82;;;11.02;;
76417;SDS011;65250;47.602;19.002;2023-07-09T14:38:23;12.77;;;11.98;;
76417;SDS011;65250;47.602;19.002;2023-07-09T14:40:54;13.77;;;13.00;;
76417;SDS011;65250;47.602;19.002;2023-07-09T14:43:22;13.05;;;12.15;;
76417;SDS011;65250;47.602;19.002;2023-07-09T14:45:49;14.35;;;13.20;;
76417;SDS011;65250;47.602;19.002;2023-07-09T14:48:17;14.77;;;14.05;;
76417;SDS011;65250;47.602;19.002;2023-07-09T14:50:46;15.50;;;14.60;;
76417;SDS011;65250;47.602;19.002;2023-07-09T14:53:21;15.13;;;14.23;;
76417;SDS011;65250;47.602;19.002;2023-07-09T14:55:48;15.27;;;14.38;;
76417;SDS011;65250;47.602;19.002;2023-07-09T14:58:16;15.70;;;14.70;;
76417;SDS011;65250;47.602;19.002;2023-07-09T15:00:45;16.13;;;15.18;;
76417;SDS011;65250;47.602;19.002;2023-07-09T15:03:23;14.75;;;13.85;;
76417;SDS011;65250;47.602;19.002;2023-07-09T15:05:52;15.63;;;14.63;;
76417;SDS011;65250;47.602;19.002;2023-07-09T15:08:21;16.17;;;15.18;;
76417;SDS011;65250;47.602;19.002;2023-07-09T15:10:50;14.52;;;13.73;;
76417;SDS011;65250;47.602;19.002;2023-07-09T15:15:52;11.20;;;10.35;;
76417;SDS011;65250;47.602;19.002;2023-07-09T15:18:19;9.07;;;8.30;;
76417;SDS011;65250;47.602;19.002;2023-07-09T15:20:50;8.00;;;7.50;;
76417;SDS011;65250;47.602;19.002;2023-07-09T15:23:18;7.65;;;7.07;;
76417;SDS011;65250;47.602;19.002;2023-07-09T15:25:48;7.20;;;6.60;;
76417;SDS011;65250;47.602;19.002;2023-07-09T15:28:16;6.75;;;6.15;;
76417;SDS011;65250;47.602;19.002;2023-07-09T15:30:43;6.13;;;5.53;;
76417;SDS011;65250;47.602;19.002;2023-07-09T15:33:14;6.00;;;5.43;;
76417;SDS011;65250;47.602;19.002;2023-07-09T15:35:43;5.55;;;5.13;;
76417;SDS011;65250;47.602;19.002;2023-07-09T15:40:45;7.28;;;4.72;;